createdAt,value
2018-05-11T00:02:02.419Z,85.93
2018-05-11T00:04:30.715Z,85.95
2018-05-11T00:06:59.851Z,85.97
2018-05-11T00:09:28.157Z,85.78
2018-05-11T00:11:56.659Z,85.77
2018-05-11T00:14:24.942Z,85.54
2018-05-11T00:16:55.626Z,85.31
2018-05-11T00:19:23.915Z,85.33
2018-05-11T00:21:52.910Z,85.38
2018-05-11T00:24:21.288Z,84.95
2018-05-11T00:26:49.561Z,85.22
2018-05-11T00:29:18.455Z,85.59
2018-05-11T00:31:46.726Z,85.76
2018-05-11T00:34:15.028Z,85.29
2018-05-11T00:36:43.691Z,85.53
2018-05-11T00:39:12.348Z,85.29
2018-05-11T00:41:40.672Z,85.37
2018-05-11T00:44:08.943Z,85.27
2018-05-11T00:46:37.351Z,85.46
2018-05-11T00:49:05.650Z,85.52
2018-05-11T00:51:35.578Z,85.40
2018-05-11T00:54:04.330Z,85.28
2018-05-11T00:56:32.982Z,84.96
2018-05-11T00:59:01.791Z,85.36
2018-05-11T01:01:30.477Z,85.75
2018-05-11T01:03:59.415Z,85.66
2018-05-11T01:06:28.467Z,86.01
2018-05-11T01:08:56.778Z,85.46
2018-05-11T01:11:25.830Z,85.16
2018-05-11T01:13:54.415Z,85.60
2018-05-11T01:16:22.713Z,85.93
2018-05-11T01:18:51.760Z,86.19
2018-05-11T01:21:21.615Z,86.17
2018-05-11T01:23:49.973Z,86.02
2018-05-11T01:26:18.263Z,85.98
2018-05-11T01:28:46.772Z,86.25
2018-05-11T01:31:15.622Z,86.38
2018-05-11T01:33:44.686Z,85.98
2018-05-11T01:36:13.982Z,86.71
2018-05-11T01:38:43.618Z,86.01
2018-05-11T01:41:11.918Z,86.02
2018-05-11T01:43:40.398Z,86.40
2018-05-11T01:46:09.036Z,86.43
2018-05-11T01:48:38.134Z,86.66
2018-05-11T01:51:07.174Z,86.78
2018-05-11T01:53:35.485Z,86.78
2018-05-11T01:56:03.783Z,87.07
2018-05-11T01:58:32.859Z,86.76
2018-05-11T02:01:02.592Z,86.93
2018-05-11T02:03:32.414Z,86.71
2018-05-11T02:06:01.507Z,86.80
2018-05-11T02:08:30.570Z,86.44
2018-05-11T02:10:58.924Z,86.71
2018-05-11T02:13:27.647Z,86.74
2018-05-11T02:15:56.419Z,86.65
2018-05-11T02:18:24.702Z,86.20
2018-05-11T02:20:53.265Z,86.97
2018-05-11T02:23:21.923Z,87.24
2018-05-11T02:25:50.735Z,87.02
2018-05-11T02:28:20.361Z,86.44
2018-05-11T02:30:48.646Z,86.79
2018-05-11T02:33:17.799Z,86.68
2018-05-11T02:35:46.738Z,86.34
2018-05-11T02:38:15.220Z,86.14
2018-05-11T02:40:43.850Z,86.33
2018-05-11T02:43:13.628Z,86.11
2018-05-11T02:45:42.535Z,85.98
2018-05-11T02:48:11.610Z,85.62
2018-05-11T02:50:40.447Z,85.90
2018-05-11T02:53:09.856Z,85.73
2018-05-11T02:55:38.568Z,86.03
2018-05-11T02:58:06.838Z,85.92
2018-05-11T03:00:35.131Z,85.78
2018-05-11T03:03:04.095Z,85.79
2018-05-11T03:05:32.819Z,85.86
2018-05-11T03:08:01.124Z,86.40
2018-05-11T03:10:29.533Z,86.39
2018-05-11T03:12:58.471Z,86.29
2018-05-11T03:15:26.763Z,86.20
2018-05-11T03:17:55.212Z,86.19
2018-05-11T03:20:23.511Z,86.25
2018-05-11T03:22:51.807Z,86.38
2018-05-11T03:25:20.098Z,86.54
2018-05-11T03:27:48.759Z,86.28
2018-05-11T03:30:18.762Z,86.46
2018-05-11T03:32:48.451Z,86.78
2018-05-11T03:35:16.755Z,86.39
2018-05-11T03:37:45.999Z,86.75
2018-05-11T03:40:15.698Z,86.55
2018-05-11T03:42:45.108Z,86.51
2018-05-11T03:45:14.695Z,86.55
2018-05-11T03:47:44.178Z,86.63
2018-05-11T03:50:13.258Z,86.53
2018-05-11T03:52:41.539Z,85.98
2018-05-11T03:55:09.815Z,85.99
2018-05-11T03:57:38.123Z,86.06
2018-05-11T04:00:07.429Z,86.53
2018-05-11T04:02:54.323Z,86.38
2018-05-11T04:05:40.449Z,86.04
2018-05-11T04:08:27.546Z,86.21
2018-05-11T04:10:57.190Z,86.35
2018-05-11T04:13:26.227Z,86.14
2018-05-11T04:15:54.991Z,86.30
2018-05-11T04:18:24.035Z,86.47
2018-05-11T04:20:52.374Z,86.14
2018-05-11T04:23:21.674Z,86.12
2018-05-11T04:25:50.722Z,86.29
2018-05-11T04:28:19.031Z,85.47
2018-05-11T04:30:48.126Z,86.20
2018-05-11T04:33:17.796Z,86.34
2018-05-11T04:35:46.254Z,86.26
2018-05-11T04:38:15.561Z,86.03
2018-05-11T04:40:43.838Z,86.33
2018-05-11T04:43:12.218Z,86.53
2018-05-11T04:45:40.491Z,86.39
2018-05-11T04:48:09.190Z,86.44
2018-05-11T04:50:38.127Z,86.53
2018-05-11T04:53:06.838Z,86.67
2018-05-11T04:55:35.583Z,86.77
2018-05-11T04:58:04.178Z,86.65
2018-05-11T05:00:34.059Z,86.54
2018-05-11T05:03:02.624Z,87.16
2018-05-11T05:05:30.910Z,86.83
2018-05-11T05:07:59.449Z,86.65
2018-05-11T05:10:28.442Z,86.83
2018-05-11T05:12:57.234Z,86.40
2018-05-11T05:15:26.331Z,86.61
2018-05-11T05:17:54.731Z,86.67
2018-05-11T05:20:23.899Z,86.77
2018-05-11T05:22:52.211Z,86.91
2018-05-11T05:25:21.270Z,86.51
2018-05-11T05:27:50.239Z,86.65
2018-05-11T05:30:18.523Z,86.50
2018-05-11T05:32:46.890Z,86.55
2018-05-11T05:35:15.580Z,85.73
2018-05-11T05:37:45.034Z,86.00
2018-05-11T05:40:14.885Z,86.04
2018-05-11T05:42:43.271Z,85.88
2018-05-11T05:45:12.231Z,85.84
2018-05-11T05:47:41.289Z,85.39
2018-05-11T05:50:09.681Z,84.95
2018-05-11T05:52:38.587Z,84.94
2018-05-11T05:55:06.938Z,84.94
2018-05-11T05:57:36.032Z,84.10
2018-05-11T06:00:04.815Z,83.88
2018-05-11T06:02:33.615Z,83.80
2018-05-11T06:05:03.280Z,83.36
2018-05-11T06:07:31.558Z,83.88
2018-05-11T06:10:00.754Z,83.73
2018-05-11T06:12:29.028Z,83.65
2018-05-11T06:14:58.231Z,83.42
2018-05-11T06:17:27.201Z,82.85
2018-05-11T06:19:55.683Z,83.00
2018-05-11T06:22:24.324Z,82.94
2018-05-11T06:24:52.656Z,82.74
2018-05-11T06:27:22.518Z,82.96
2018-05-11T06:29:50.799Z,82.11
2018-05-11T06:32:19.175Z,82.30
2018-05-11T06:34:47.678Z,82.37
2018-05-11T06:37:16.663Z,81.26
2018-05-11T06:39:46.486Z,81.57
2018-05-11T06:42:14.758Z,80.17
2018-05-11T06:44:43.066Z,80.71
2018-05-11T06:47:12.921Z,80.03
2018-05-11T06:49:41.220Z,79.81
2018-05-11T06:52:10.015Z,79.64
2018-05-11T06:54:38.313Z,79.60
2018-05-11T06:57:07.303Z,79.57
2018-05-11T06:59:36.367Z,78.80
2018-05-11T07:02:04.766Z,78.60
2018-05-11T07:04:33.538Z,78.55
2018-05-11T07:07:01.922Z,78.34
2018-05-11T07:09:30.308Z,77.55
2018-05-11T07:11:58.791Z,76.95
2018-05-11T07:14:27.160Z,76.78
2018-05-11T07:16:56.359Z,77.87
2018-05-11T07:19:26.024Z,77.30
2018-05-11T07:21:54.875Z,76.75
2018-05-11T07:24:23.158Z,76.96
2018-05-11T07:26:51.532Z,74.67
2018-05-11T07:29:19.819Z,74.66
2018-05-11T07:31:48.606Z,75.99
2018-05-11T07:34:17.171Z,76.18
2018-05-11T07:36:46.071Z,74.94
2018-05-11T07:39:14.747Z,74.86
2018-05-11T07:41:43.551Z,74.84
2018-05-11T07:44:11.853Z,75.43
2018-05-11T07:46:40.746Z,73.88
2018-05-11T07:49:09.654Z,73.76
2018-05-11T07:51:38.794Z,73.46
2018-05-11T07:54:08.464Z,72.50
2018-05-11T07:56:37.711Z,71.87
2018-05-11T07:59:05.978Z,72.70
2018-05-11T08:01:34.979Z,72.59
2018-05-11T08:04:03.309Z,72.05
2018-05-11T08:06:31.567Z,73.43
2018-05-11T08:09:00.666Z,73.28
2018-05-11T08:11:29.262Z,72.95
2018-05-11T08:13:58.145Z,73.05
2018-05-11T08:16:27.132Z,71.85
2018-05-11T08:18:55.786Z,71.90
2018-05-11T08:21:24.655Z,72.06
2018-05-11T08:23:53.534Z,72.67
2018-05-11T08:26:23.318Z,72.76
2018-05-11T08:28:51.601Z,73.68
2018-05-11T08:31:20.458Z,72.27
2018-05-11T08:33:49.656Z,73.37
2018-05-11T08:36:18.039Z,72.44
2018-05-11T08:38:46.876Z,72.85
2018-05-11T08:41:15.951Z,73.63
2018-05-11T08:43:44.326Z,73.44
2018-05-11T08:46:13.310Z,73.26
2018-05-11T08:48:43.031Z,72.74
2018-05-11T08:51:11.928Z,72.11
2018-05-11T08:53:40.317Z,72.58
2018-05-11T08:56:09.183Z,71.86
2018-05-11T08:58:37.494Z,71.52
2018-05-11T09:01:06.541Z,71.15
2018-05-11T09:03:35.251Z,71.39
2018-05-11T09:06:03.828Z,71.78
2018-05-11T09:08:32.122Z,72.03
2018-05-11T09:11:01.004Z,70.54
2018-05-11T09:13:29.389Z,70.31
2018-05-11T09:15:57.686Z,70.69
2018-05-11T09:18:26.430Z,68.56
2018-05-11T09:20:54.751Z,69.07
2018-05-11T09:23:24.395Z,69.01
2018-05-11T09:25:53.365Z,68.80
2018-05-11T09:28:21.724Z,67.42
2018-05-11T09:30:50.743Z,67.11
2018-05-11T09:33:20.425Z,69.90
2018-05-11T09:35:48.724Z,67.51
2018-05-11T09:38:17.068Z,67.62
2018-05-11T09:40:46.514Z,65.99
2018-05-11T09:43:15.593Z,64.70
2018-05-11T09:45:44.700Z,63.59
2018-05-11T09:48:12.966Z,63.84
2018-05-11T09:50:42.537Z,65.50
2018-05-11T09:53:10.920Z,63.38
2018-05-11T09:55:39.335Z,63.81
2018-05-11T09:58:08.130Z,63.75
2018-05-11T10:00:36.999Z,63.86
2018-05-11T10:03:05.703Z,61.61
2018-05-11T10:05:35.703Z,61.49
2018-05-11T10:08:04.058Z,62.33
2018-05-11T10:10:32.349Z,61.84
2018-05-11T10:13:01.228Z,62.34
2018-05-11T10:15:29.743Z,60.90
2018-05-11T10:17:58.142Z,60.71
2018-05-11T10:20:27.836Z,60.40
2018-05-11T10:22:56.150Z,60.90
2018-05-11T10:25:25.295Z,62.56
2018-05-11T10:27:54.295Z,66.57
2018-05-11T10:30:23.347Z,66.14
2018-05-11T10:32:52.407Z,57.59
2018-05-11T10:35:20.675Z,55.86
2018-05-11T10:37:49.182Z,56.70
2018-05-11T10:40:19.028Z,54.27
2018-05-11T10:42:47.291Z,56.79
2018-05-11T10:45:16.357Z,56.29
2018-05-11T10:47:44.647Z,55.53
2018-05-11T10:50:14.012Z,56.80
2018-05-11T10:52:42.399Z,54.82
2018-05-11T10:55:11.391Z,54.72
2018-05-11T10:57:40.421Z,54.35
2018-05-11T11:00:10.203Z,56.44
2018-05-11T11:02:38.479Z,57.06
2018-05-11T11:05:06.742Z,60.56
2018-05-11T11:07:35.181Z,61.43
2018-05-11T11:10:04.223Z,57.75
2018-05-11T11:12:32.897Z,56.93
2018-05-11T11:15:01.660Z,55.45
2018-05-11T11:17:31.440Z,55.29
2018-05-11T11:20:00.241Z,56.25
2018-05-11T11:22:28.978Z,57.78
2018-05-11T11:24:57.538Z,58.75
2018-05-11T11:27:27.282Z,58.62
2018-05-11T11:29:55.785Z,56.64
2018-05-11T11:32:24.052Z,53.33
2018-05-11T11:34:52.691Z,54.00
2018-05-11T11:37:21.762Z,54.28
2018-05-11T11:39:51.403Z,54.11
2018-05-11T11:42:21.195Z,54.12
2018-05-11T11:44:49.523Z,55.70
2018-05-11T11:47:18.590Z,54.28
2018-05-11T11:49:48.468Z,53.57
2018-05-11T11:52:18.313Z,53.49
2018-05-11T11:54:47.355Z,55.43
2018-05-11T11:57:15.659Z,55.66
2018-05-11T11:59:43.930Z,55.15
2018-05-11T12:02:12.610Z,52.94
2018-05-11T12:04:40.925Z,52.60
2018-05-11T12:07:10.065Z,51.56
2018-05-11T12:09:39.675Z,52.14
2018-05-11T12:12:08.659Z,54.34
2018-05-11T12:14:37.446Z,52.85
2018-05-11T12:17:05.721Z,49.06
2018-05-11T12:19:34.113Z,51.60
2018-05-11T12:22:02.801Z,48.37
2018-05-11T12:24:31.443Z,46.92
2018-05-11T12:27:01.443Z,48.51
2018-05-11T12:29:30.498Z,49.92
2018-05-11T12:31:58.778Z,50.45
2018-05-11T12:34:28.610Z,50.24
2018-05-11T12:36:57.644Z,51.27
2018-05-11T12:39:27.545Z,50.46
2018-05-11T12:41:56.898Z,48.22
2018-05-11T12:44:25.173Z,49.36
2018-05-11T12:46:53.570Z,49.55
2018-05-11T12:49:22.627Z,51.41
2018-05-11T12:51:51.491Z,47.03
2018-05-11T12:54:20.057Z,46.45
2018-05-11T12:56:49.244Z,45.12
2018-05-11T12:59:18.014Z,43.07
2018-05-11T13:01:47.026Z,45.88
2018-05-11T13:04:15.300Z,45.61
2018-05-11T13:06:45.223Z,46.88
2018-05-11T13:09:13.556Z,48.13
2018-05-11T13:11:42.587Z,45.54
2018-05-11T13:14:10.859Z,47.89
2018-05-11T13:16:39.163Z,47.32
2018-05-11T13:19:07.433Z,49.38
2018-05-11T13:21:35.735Z,49.60
2018-05-11T13:24:05.103Z,46.59
2018-05-11T13:26:33.381Z,46.20
2018-05-11T13:29:01.666Z,43.87
2018-05-11T13:31:30.155Z,42.53
2018-05-11T13:33:58.423Z,40.88
2018-05-11T13:36:26.970Z,36.94
2018-05-11T13:38:55.378Z,36.99
2018-05-11T13:41:24.919Z,36.45
2018-05-11T13:43:53.580Z,38.11
2018-05-11T13:46:22.483Z,36.97
2018-05-11T13:48:51.393Z,35.98
2018-05-11T13:51:19.953Z,31.15
2018-05-11T13:53:48.231Z,28.44
2018-05-11T13:56:16.529Z,29.21
2018-05-11T13:58:44.906Z,29.56
2018-05-11T14:01:13.228Z,35.21
2018-05-11T14:03:42.281Z,33.77
2018-05-11T14:06:11.338Z,32.49
2018-05-11T14:08:39.643Z,30.20
2018-05-11T14:11:07.934Z,30.78
2018-05-11T14:13:36.199Z,30.83
2018-05-11T14:16:04.612Z,30.29
2018-05-11T14:18:32.890Z,33.61
2018-05-11T14:21:02.899Z,35.41
2018-05-11T14:23:31.186Z,38.75
2018-05-11T14:25:59.474Z,36.26
2018-05-11T14:28:28.523Z,31.96
2018-05-11T14:30:56.898Z,32.83
2018-05-11T14:33:26.899Z,34.58
2018-05-11T14:35:55.844Z,27.94
2018-05-11T14:38:24.592Z,29.96
2018-05-11T14:40:52.885Z,31.58
2018-05-11T14:43:21.229Z,31.78
2018-05-11T14:45:49.827Z,30.39
2018-05-11T14:48:18.115Z,28.34
2018-05-11T14:50:47.116Z,27.23
2018-05-11T14:53:15.493Z,26.93
2018-05-11T14:55:43.785Z,27.94
2018-05-11T14:58:12.451Z,27.49
2018-05-11T15:00:41.755Z,27.05
2018-05-11T15:03:10.042Z,27.10
2018-05-11T15:05:38.315Z,32.76
2018-05-11T15:08:06.714Z,33.60
2018-05-11T15:10:35.079Z,32.99
2018-05-11T15:13:03.560Z,31.73
2018-05-11T15:15:32.573Z,31.34
2018-05-11T15:18:01.151Z,29.75
2018-05-11T15:20:29.426Z,32.49
2018-05-11T15:22:58.515Z,27.24
2018-05-11T15:25:26.790Z,28.26
2018-05-11T15:27:55.060Z,27.60
2018-05-11T15:30:23.350Z,28.85
2018-05-11T15:32:51.637Z,28.17
2018-05-11T15:35:19.923Z,27.42
2018-05-11T15:37:48.259Z,25.31
2018-05-11T15:40:16.551Z,26.73
2018-05-11T15:42:45.343Z,26.21
2018-05-11T15:45:13.614Z,29.55
2018-05-11T15:47:41.890Z,27.51
2018-05-11T15:50:10.270Z,25.74
2018-05-11T15:52:38.654Z,26.98
2018-05-11T15:55:06.944Z,28.72
2018-05-11T15:57:36.664Z,28.96
2018-05-11T16:00:04.965Z,29.67
2018-05-11T16:02:34.069Z,30.18
2018-05-11T16:05:03.123Z,30.93
2018-05-11T16:07:32.614Z,31.29
2018-05-11T16:10:00.889Z,33.59
2018-05-11T16:12:30.190Z,39.07
2018-05-11T16:14:59.298Z,39.04
2018-05-11T16:17:27.699Z,38.91
2018-05-11T16:19:56.290Z,40.61
2018-05-11T16:22:25.510Z,42.70
2018-05-11T16:24:53.938Z,44.99
2018-05-11T16:27:22.716Z,45.11
2018-05-11T16:29:51.025Z,47.86
2018-05-11T16:32:19.300Z,48.42
2018-05-11T16:34:48.892Z,49.61
2018-05-11T16:37:17.233Z,46.24
2018-05-11T16:39:45.462Z,45.79
2018-05-11T16:42:14.091Z,45.33
2018-05-11T16:44:43.733Z,48.61
2018-05-11T16:47:13.408Z,48.68
2018-05-11T16:49:43.168Z,47.53
2018-05-11T16:52:11.769Z,45.89
2018-05-11T16:54:40.066Z,46.63
2018-05-11T16:57:08.355Z,46.51
2018-05-11T16:59:36.689Z,45.10
2018-05-11T17:02:05.002Z,47.47
2018-05-11T17:04:34.535Z,46.31
2018-05-11T17:07:04.309Z,46.43
2018-05-11T17:09:32.601Z,46.38
2018-05-11T17:12:00.957Z,47.03
2018-05-11T17:14:30.419Z,46.78
2018-05-11T17:16:59.454Z,46.64
2018-05-11T17:19:28.223Z,46.70
2018-05-11T17:21:56.496Z,47.14
2018-05-11T17:24:24.766Z,47.26
2018-05-11T17:26:53.055Z,48.45
2018-05-11T17:29:21.942Z,49.29
2018-05-11T17:31:50.964Z,47.04
2018-05-11T17:34:19.951Z,47.79
2018-05-11T17:36:48.326Z,50.24
2018-05-11T17:39:17.230Z,50.36
2018-05-11T17:41:46.739Z,50.32
2018-05-11T17:44:15.038Z,49.81
2018-05-11T17:46:45.083Z,52.62
2018-05-11T17:49:14.615Z,49.38
2018-05-11T17:51:42.920Z,51.31
2018-05-11T17:54:11.219Z,50.11
2018-05-11T17:56:40.510Z,50.86
2018-05-11T17:59:08.797Z,51.92
2018-05-11T18:01:37.662Z,53.77
2018-05-11T18:04:06.053Z,53.54
2018-05-11T18:06:34.341Z,52.47
2018-05-11T18:09:03.240Z,50.97
2018-05-11T18:11:31.521Z,51.71
2018-05-11T18:14:02.047Z,51.70
2018-05-11T18:16:30.474Z,53.99
2018-05-11T18:18:58.863Z,53.15
2018-05-11T18:21:27.786Z,52.51
2018-05-11T18:23:56.510Z,53.42
2018-05-11T18:26:25.550Z,53.08
2018-05-11T18:28:53.858Z,53.49
2018-05-11T18:31:22.948Z,53.03
2018-05-11T18:33:51.223Z,54.70
2018-05-11T18:36:19.603Z,59.17
2018-05-11T18:38:47.886Z,61.26
2018-05-11T18:41:17.075Z,62.13
2018-05-11T18:43:46.094Z,63.16
2018-05-11T18:46:15.585Z,63.59
2018-05-11T18:48:43.862Z,64.04
2018-05-11T18:51:12.783Z,64.83
2018-05-11T18:53:42.239Z,65.17
2018-05-11T18:56:10.124Z,66.12
2018-05-11T18:58:38.459Z,67.05
2018-05-11T19:01:07.543Z,67.23
2018-05-11T19:03:37.224Z,67.37
2018-05-11T19:06:06.040Z,67.77
2018-05-11T19:08:35.159Z,68.35
2018-05-11T19:11:03.863Z,69.59
2018-05-11T19:13:32.194Z,69.38
2018-05-11T19:16:01.273Z,69.85
2018-05-11T19:18:29.902Z,70.18
2018-05-11T19:20:58.168Z,70.55
2018-05-11T19:23:27.586Z,70.45
2018-05-11T19:25:55.994Z,70.72
2018-05-11T19:28:24.271Z,70.23
2018-05-11T19:30:53.264Z,70.18
2018-05-11T19:33:21.587Z,70.14
2018-05-11T19:35:50.590Z,70.48
2018-05-11T19:38:19.641Z,70.03
2018-05-11T19:40:48.051Z,70.82
2018-05-11T19:43:17.690Z,70.52
2018-05-11T19:45:46.809Z,70.94
2018-05-11T19:48:15.106Z,70.74
2018-05-11T19:50:43.396Z,71.50
2018-05-11T19:53:11.698Z,71.02
2018-05-11T19:55:40.894Z,70.59
2018-05-11T19:58:10.579Z,70.61
2018-05-11T20:00:38.863Z,70.48
2018-05-11T20:03:07.143Z,70.05
2018-05-11T20:05:35.450Z,70.09
2018-05-11T20:08:05.129Z,70.67
2018-05-11T20:10:34.230Z,70.26
2018-05-11T20:13:02.811Z,70.46
2018-05-11T20:15:32.571Z,70.18
2018-05-11T20:18:01.607Z,69.83
2018-05-11T20:20:29.918Z,70.88
2018-05-11T20:22:58.807Z,70.12
2018-05-11T20:25:27.153Z,69.01
2018-05-11T20:27:55.540Z,69.85
2018-05-11T20:30:24.768Z,69.33
2018-05-11T20:32:53.118Z,70.41
2018-05-11T20:35:21.587Z,70.26
2018-05-11T20:37:51.132Z,69.86
2018-05-11T20:40:19.949Z,68.91
2018-05-11T20:42:49.035Z,68.83
2018-05-11T20:45:18.487Z,68.69
2018-05-11T20:47:47.416Z,67.66
2018-05-11T20:50:15.740Z,68.12
2018-05-11T20:52:44.844Z,67.64
2018-05-11T20:55:13.757Z,67.23
2018-05-11T20:57:42.097Z,66.80
2018-05-11T21:00:11.149Z,66.83
2018-05-11T21:02:39.499Z,67.93
2018-05-11T21:05:07.786Z,67.75
2018-05-11T21:07:36.178Z,67.31
2018-05-11T21:10:04.476Z,67.48
2018-05-11T21:12:32.808Z,67.53
2018-05-11T21:15:01.504Z,67.86
2018-05-11T21:17:30.939Z,66.48
2018-05-11T21:19:59.247Z,65.55
2018-05-11T21:22:28.332Z,67.06
2018-05-11T21:24:58.239Z,66.17
2018-05-11T21:27:26.602Z,66.74
2018-05-11T21:29:54.931Z,66.57
2018-05-11T21:32:23.207Z,66.48
2018-05-11T21:34:52.194Z,65.66
2018-05-11T21:37:21.328Z,67.20
2018-05-11T21:39:49.636Z,66.42
2018-05-11T21:42:18.191Z,65.95
2018-05-11T21:44:47.091Z,65.74
2018-05-11T21:47:15.364Z,65.81
2018-05-11T21:49:43.659Z,66.07
2018-05-11T21:52:12.091Z,65.75
2018-05-11T21:54:41.221Z,65.82
2018-05-11T21:57:09.555Z,65.97
2018-05-11T21:59:37.837Z,66.45
2018-05-11T22:02:07.508Z,66.78
2018-05-11T22:04:36.227Z,66.97
2018-05-11T22:07:05.499Z,66.74
2018-05-11T22:09:34.239Z,67.11
2018-05-11T22:12:02.528Z,67.83
2018-05-11T22:14:31.096Z,66.09
2018-05-11T22:17:00.055Z,66.72
2018-05-11T22:19:28.339Z,66.85
2018-05-11T22:21:57.273Z,66.44
2018-05-11T22:24:25.572Z,66.92
2018-05-11T22:26:54.657Z,67.12
2018-05-11T22:29:22.960Z,67.54
2018-05-11T22:31:51.415Z,67.84
2018-05-11T22:34:20.543Z,68.75
2018-05-11T22:36:49.228Z,68.99
2018-05-11T22:39:18.102Z,68.99
2018-05-11T22:41:47.090Z,69.21
2018-05-11T22:44:15.375Z,69.14
2018-05-11T22:46:43.876Z,69.81
2018-05-11T22:49:12.455Z,70.04
2018-05-11T22:51:41.048Z,70.29
2018-05-11T22:54:09.402Z,69.66
2018-05-11T22:56:38.607Z,70.50
2018-05-11T22:59:06.938Z,70.86
2018-05-11T23:01:37.559Z,70.40
2018-05-11T23:04:07.143Z,70.93
2018-05-11T23:06:35.919Z,70.39
2018-05-11T23:09:04.213Z,69.57
2018-05-11T23:11:32.522Z,69.93
2018-05-11T23:14:01.588Z,70.56
2018-05-11T23:16:30.769Z,70.77
2018-05-11T23:18:59.145Z,70.51
2018-05-11T23:21:27.411Z,69.82
2018-05-11T23:23:56.007Z,70.88
2018-05-11T23:26:25.203Z,70.87
2018-05-11T23:28:54.120Z,71.25
2018-05-11T23:31:22.490Z,70.76
2018-05-11T23:33:50.955Z,69.84
2018-05-11T23:36:19.231Z,71.88
2018-05-11T23:38:47.542Z,71.11
2018-05-11T23:41:16.448Z,71.53
2018-05-11T23:43:45.574Z,70.73
2018-05-11T23:46:14.090Z,71.25
2018-05-11T23:48:42.383Z,71.43
2018-05-11T23:51:10.696Z,70.99
2018-05-11T23:53:39.736Z,71.74
2018-05-11T23:56:08.131Z,71.66
2018-05-11T23:58:36.426Z,72.80
